Time;durP1;ratioP1;P1;durP2;ratioP2;P2;SDS_P1;SDS_P2;PMS_P1;PMS_P2;Temp;Humidity;BMP_temperature;BMP_pressure;BME280_temperature;BME280_humidity;BME280_pressure;Samples;Min_cycle;Max_cycle;Signal;HPM_P1;HPM_P2
2021/10/28 00:14:21;;;;;;;7.38;5.65;;;10.40;99.90;;;;;;5030816;28;20460;-78
2021/10/28 00:16:49;;;;;;;7.82;5.05;;;10.40;99.90;;;;;;5030307;28;20457;-78
2021/10/28 00:19:15;;;;;;;8.20;5.35;;;10.30;99.90;;;;;;5029918;28;20490;-78
2021/10/28 00:21:41;;;;;;;6.35;5.13;;;10.30;99.90;;;;;;5029563;28;20037;-79
2021/10/28 00:24:10;;;;;;;7.15;5.45;;;10.30;99.90;;;;;;5030506;28;20033;-80
2021/10/28 00:26:39;;;;;;;7.72;5.22;;;10.30;99.90;;;;;;5030158;28;20451;-80
2021/10/28 00:29:07;;;;;;;5.93;4.88;;;10.30;99.90;;;;;;5029647;28;20091;-80
2021/10/28 00:31:35;;;;;;;7.45;5.53;;;10.20;99.90;;;;;;5029897;28;20040;-80
2021/10/28 00:34:01;;;;;;;8.68;5.90;;;10.20;99.90;;;;;;5030310;28;20022;-79
2021/10/28 00:36:28;;;;;;;6.20;5.40;;;10.30;99.90;;;;;;5029795;28;20030;-79
2021/10/28 00:38:54;;;;;;;5.90;5.30;;;10.20;99.90;;;;;;5029073;28;20025;-79
2021/10/28 00:41:22;;;;;;;7.45;4.97;;;10.20;99.90;;;;;;5029871;28;20508;-80
2021/10/28 00:43:50;;;;;;;10.00;5.40;;;10.20;99.90;;;;;;5030270;28;20033;-79
2021/10/28 00:46:18;;;;;;;6.10;5.35;;;10.20;99.90;;;;;;5030003;28;20072;-79
2021/10/28 00:48:46;;;;;;;5.72;4.45;;;10.20;99.90;;;;;;5029170;28;20070;-79
2021/10/28 00:51:13;;;;;;;5.93;4.88;;;10.10;99.90;;;;;;5029903;28;20037;-79
2021/10/28 00:53:39;;;;;;;5.97;5.10;;;10.10;99.90;;;;;;5030673;28;20030;-79
2021/10/28 00:56:05;;;;;;;7.13;5.82;;;10.10;99.90;;;;;;5028905;28;20030;-79
2021/10/28 00:58:32;;;;;;;5.70;4.80;;;10.10;99.90;;;;;;5028708;28;20470;-78
2021/10/28 01:00:59;;;;;;;7.47;5.80;;;10.10;99.90;;;;;;5029281;28;20148;-78
2021/10/28 01:03:25;;;;;;;8.80;5.70;;;10.10;99.90;;;;;;5045251;28;20037;-78
2021/10/28 01:05:50;;;;;;;7.47;6.10;;;10.10;99.90;;;;;;5029268;28;20029;-79
2021/10/28 01:08:16;;;;;;;9.27;6.10;;;10.10;99.90;;;;;;5029004;28;20156;-79
2021/10/28 01:10:46;;;;;;;7.75;5.70;;;10.10;99.90;;;;;;5028900;28;20060;-79
2021/10/28 01:13:13;;;;;;;6.13;5.25;;;10.10;99.90;;;;;;5028582;28;20060;-78
2021/10/28 01:15:39;;;;;;;6.13;5.18;;;10.10;99.90;;;;;;5029187;28;20034;-78
2021/10/28 01:18:12;;;;;;;6.70;5.65;;;10.10;99.90;;;;;;5028815;28;20044;-79
2021/10/28 01:20:40;;;;;;;7.38;5.75;;;10.00;99.90;;;;;;5029179;28;20114;-78
2021/10/28 01:23:07;;;;;;;9.75;6.03;;;10.00;99.90;;;;;;5029598;28;20036;-78
2021/10/28 01:25:33;;;;;;;7.85;6.30;;;10.00;99.90;;;;;;5029472;28;20027;-78
2021/10/28 01:27:59;;;;;;;7.85;5.78;;;10.00;99.90;;;;;;5028692;28;20041;-79
2021/10/28 01:30:25;;;;;;;7.18;5.47;;;10.00;99.90;;;;;;5029448;28;20031;-78
2021/10/28 01:32:51;;;;;;;10.05;6.30;;;10.00;99.90;;;;;;5028747;28;20022;-78
2021/10/28 01:35:17;;;;;;;7.53;6.25;;;10.00;99.90;;;;;;5019655;28;20177;-78
2021/10/28 01:37:44;;;;;;;9.93;6.85;;;9.90;99.90;;;;;;5008855;28;20080;-79
2021/10/28 01:40:11;;;;;;;8.48;6.97;;;9.90;99.90;;;;;;5010147;28;20028;-79
2021/10/28 01:42:39;;;;;;;8.85;6.55;;;9.90;99.90;;;;;;5013016;28;20026;-78
2021/10/28 01:45:05;;;;;;;14.10;8.23;;;9.90;99.90;;;;;;5028862;28;20049;-79
2021/10/28 01:47:31;;;;;;;9.43;6.70;;;9.90;99.90;;;;;;5013157;28;20030;-78
2021/10/28 01:49:56;;;;;;;10.45;7.13;;;9.90;99.90;;;;;;5012620;28;20021;-78
2021/10/28 01:52:22;;;;;;;10.25;7.63;;;9.90;99.90;;;;;;5013323;28;20536;-79
2021/10/28 01:54:47;;;;;;;10.48;8.13;;;9.90;99.90;;;;;;5013157;28;20037;-79
2021/10/28 01:57:21;;;;;;;9.98;7.55;;;9.90;99.90;;;;;;5013488;28;20038;-79
2021/10/28 01:59:48;;;;;;;11.80;8.20;;;9.90;99.90;;;;;;5012296;28;20030;-79
2021/10/28 02:02:14;;;;;;;12.73;8.10;;;9.80;99.90;;;;;;5012775;28;20037;-79
2021/10/28 02:04:40;;;;;;;11.32;7.63;;;9.80;99.90;;;;;;5028610;28;20030;-79
2021/10/28 02:07:06;;;;;;;10.30;8.05;;;9.80;99.90;;;;;;5012016;28;20034;-79
2021/10/28 02:09:32;;;;;;;13.10;9.57;;;9.80;99.90;;;;;;5012590;28;20386;-79
2021/10/28 02:11:58;;;;;;;12.02;8.35;;;9.70;99.90;;;;;;5012380;28;20553;-79
2021/10/28 02:14:23;;;;;;;12.57;8.82;;;9.70;99.90;;;;;;5012980;28;20030;-79
2021/10/28 02:16:49;;;;;;;11.65;8.70;;;9.70;99.90;;;;;;5012875;28;20038;-79
2021/10/28 02:19:14;;;;;;;13.25;8.70;;;9.70;99.90;;;;;;5012583;28;20490;-79
2021/10/28 02:21:40;;;;;;;17.05;9.55;;;9.70;99.90;;;;;;5012465;28;20116;-80
2021/10/28 02:24:06;;;;;;;13.23;9.65;;;9.70;99.90;;;;;;5012254;28;20037;-79
2021/10/28 02:26:32;;;;;;;12.70;9.18;;;9.70;99.90;;;;;;5012654;28;20038;-79
2021/10/28 02:28:57;;;;;;;14.52;9.35;;;9.60;99.90;;;;;;5011745;28;20033;-79
2021/10/28 02:31:23;;;;;;;12.80;9.15;;;9.60;99.90;;;;;;5012774;28;20424;-80
2021/10/28 02:33:48;;;;;;;12.95;8.90;;;9.60;99.90;;;;;;5013059;28;20467;-79
2021/10/28 02:36:14;;;;;;;15.23;10.52;;;9.50;99.90;;;;;;5012769;28;20382;-80
2021/10/28 02:38:40;;;;;;;12.73;9.18;;;9.60;99.90;;;;;;5012260;28;20410;-80
2021/10/28 02:41:05;;;;;;;13.48;9.85;;;9.50;99.90;;;;;;5012169;28;20030;-79
2021/10/28 02:43:31;;;;;;;17.25;9.95;;;9.50;99.90;;;;;;5012442;28;20101;-80
2021/10/28 02:45:57;;;;;;;12.60;9.13;;;9.50;99.90;;;;;;5027926;28;20827;-79
2021/10/28 02:48:23;;;;;;;16.88;9.70;;;9.40;99.90;;;;;;5011979;28;20037;-80
2021/10/28 02:50:48;;;;;;;17.52;9.30;;;9.40;99.90;;;;;;5011850;28;20466;-79
2021/10/28 02:53:14;;;;;;;14.25;8.52;;;9.40;99.90;;;;;;5012519;28;20036;-79
2021/10/28 02:55:40;;;;;;;14.45;9.98;;;9.40;99.90;;;;;;5018907;28;20068;-79
2021/10/28 02:58:05;;;;;;;14.45;9.43;;;9.40;99.90;;;;;;5029499;28;20467;-80
2021/10/28 03:00:31;;;;;;;12.20;8.60;;;9.30;99.90;;;;;;5044827;28;20045;-80
2021/10/28 03:02:56;;;;;;;14.77;9.75;;;9.30;99.90;;;;;;5050781;28;20581;-79
2021/10/28 03:05:22;;;;;;;13.38;9.55;;;9.30;99.90;;;;;;5052173;28;20029;-79
2021/10/28 03:07:47;;;;;;;16.23;10.30;;;9.30;99.90;;;;;;5050944;28;20490;-80
2021/10/28 03:10:15;;;;;;;15.45;10.25;;;9.30;99.90;;;;;;5051956;28;20037;-79
2021/10/28 03:12:41;;;;;;;17.45;9.82;;;9.20;99.90;;;;;;5051497;28;20070;-80
2021/10/28 03:15:09;;;;;;;14.10;9.77;;;9.20;99.90;;;;;;5051651;28;20029;-79
2021/10/28 03:17:44;;;;;;;12.43;9.15;;;9.20;99.90;;;;;;5051062;28;20488;-79
2021/10/28 03:25:36;;;;;;;12.77;8.85;;;9.20;99.90;;;;;;5051523;28;20070;-79
2021/10/28 03:28:02;;;;;;;14.48;10.90;;;9.10;99.90;;;;;;5050491;28;20083;-79
2021/10/28 03:30:29;;;;;;;16.35;10.68;;;9.10;99.90;;;;;;5049721;28;20044;-79
2021/10/28 03:32:54;;;;;;;13.55;8.70;;;9.10;99.90;;;;;;5049343;28;20082;-79
2021/10/28 03:35:21;;;;;;;14.90;10.07;;;9.10;99.90;;;;;;5049742;28;20060;-79
2021/10/28 03:37:51;;;;;;;14.38;9.18;;;9.00;99.90;;;;;;5050189;28;20060;-79
2021/10/28 03:46:12;;;;;;;17.05;11.32;;;9.00;99.90;;;;;;5051243;28;20032;-79
2021/10/28 03:54:41;;;;;;;17.05;10.20;;;8.90;99.90;;;;;;5050408;28;20086;-79
2021/10/28 04:03:08;;;;;;;17.77;11.48;;;8.80;99.90;;;;;;5050614;28;20039;-79
2021/10/28 04:05:26;;;;;;;16.75;11.10;;;8.80;99.90;;;;;;5049414;28;20844;-80
2021/10/28 04:08:17;;;;;;;16.25;11.50;;;8.80;99.90;;;;;;5048713;28;20036;-80
2021/10/28 04:21:34;;;;;;;18.45;11.15;;;8.70;99.90;;;;;;5050011;28;20516;-79
2021/10/28 04:29:28;;;;;;;16.33;10.68;;;8.70;99.90;;;;;;5049541;28;20039;-79
2021/10/28 04:31:54;;;;;;;17.15;11.63;;;8.70;99.90;;;;;;5048612;28;20029;-79
2021/10/28 04:34:20;;;;;;;18.05;11.45;;;8.70;99.90;;;;;;5049813;28;20462;-79
2021/10/28 04:36:46;;;;;;;17.73;11.27;;;8.60;99.90;;;;;;5048975;28;20036;-79
2021/10/28 04:39:11;;;;;;;17.45;11.75;;;8.60;99.90;;;;;;5049391;28;20037;-79
2021/10/28 04:41:38;;;;;;;20.35;11.73;;;8.60;99.90;;;;;;5049982;28;20086;-79
2021/10/28 04:44:08;;;;;;;17.65;11.57;;;8.60;99.90;;;;;;5049682;28;20100;-80
2021/10/28 04:46:34;;;;;;;18.48;10.73;;;8.60;99.90;;;;;;5049895;28;20021;-79
2021/10/28 04:48:59;;;;;;;22.70;12.20;;;8.60;99.90;;;;;;5049140;28;20025;-79
2021/10/28 04:51:25;;;;;;;16.90;11.40;;;8.50;99.90;;;;;;5049570;28;20021;-79
2021/10/28 04:53:50;;;;;;;20.08;11.90;;;8.50;99.90;;;;;;5049787;28;20035;-79
2021/10/28 04:56:16;;;;;;;17.92;11.43;;;8.50;99.90;;;;;;5048330;28;20060;-79
2021/10/28 04:58:43;;;;;;;16.65;11.13;;;8.50;99.90;;;;;;5039658;28;20029;-79
2021/10/28 05:01:08;;;;;;;17.83;12.43;;;8.50;99.90;;;;;;5029200;28;20076;-79
2021/10/28 05:03:35;;;;;;;18.52;12.30;;;8.50;99.90;;;;;;5028269;28;20029;-79
2021/10/28 05:06:00;;;;;;;23.20;12.30;;;8.40;99.90;;;;;;5029600;28;20026;-79
2021/10/28 05:08:26;;;;;;;21.65;13.10;;;8.40;99.90;;;;;;5028700;28;20116;-78
2021/10/28 05:10:51;;;;;;;20.65;12.85;;;8.40;99.90;;;;;;5041594;28;20541;-79
2021/10/28 05:13:17;;;;;;;19.77;11.90;;;8.40;99.90;;;;;;5049324;28;20136;-78
2021/10/28 05:15:48;;;;;;;18.58;11.88;;;8.30;99.90;;;;;;5048290;28;20037;-79
2021/10/28 05:18:15;;;;;;;21.42;11.73;;;8.30;99.90;;;;;;5048660;28;20062;-79
2021/10/28 05:20:41;;;;;;;18.00;11.68;;;8.30;99.90;;;;;;5049166;28;20451;-79
2021/10/28 05:23:07;;;;;;;18.73;11.38;;;8.30;99.90;;;;;;5049028;28;20021;-78
2021/10/28 05:25:33;;;;;;;18.13;11.95;;;8.20;99.90;;;;;;5049527;28;20150;-79
2021/10/28 05:28:00;;;;;;;19.25;12.90;;;8.20;99.90;;;;;;5048864;28;20155;-79
2021/10/28 05:30:26;;;;;;;21.55;11.93;;;8.20;99.90;;;;;;5049515;28;20351;-79
2021/10/28 05:32:52;;;;;;;19.30;11.98;;;8.20;99.90;;;;;;5049461;28;20036;-79
2021/10/28 05:35:18;;;;;;;21.52;12.63;;;8.20;99.90;;;;;;5049311;28;20095;-78
2021/10/28 05:37:44;;;;;;;20.52;12.57;;;8.10;99.90;;;;;;5048830;28;20033;-81
2021/10/28 05:40:11;;;;;;;18.23;11.63;;;8.10;99.90;;;;;;5049357;28;20028;-79
2021/10/28 05:42:38;;;;;;;22.10;12.05;;;8.10;99.90;;;;;;5047506;28;20397;-78
2021/10/28 05:45:04;;;;;;;23.55;12.32;;;8.10;99.90;;;;;;5048791;28;20539;-79
2021/10/28 05:47:30;;;;;;;22.35;12.98;;;8.00;99.90;;;;;;5048844;28;20037;-79
2021/10/28 05:49:55;;;;;;;18.80;11.25;;;8.00;99.90;;;;;;5064289;28;20032;-78
2021/10/28 05:52:21;;;;;;;21.73;12.95;;;8.00;99.90;;;;;;5049255;28;20035;-80
2021/10/28 05:54:46;;;;;;;23.52;12.98;;;7.90;99.90;;;;;;5049186;28;20763;-78
2021/10/28 05:57:12;;;;;;;23.98;13.85;;;7.90;99.90;;;;;;5049125;28;20539;-79
2021/10/28 05:59:38;;;;;;;22.75;13.40;;;7.90;99.90;;;;;;5047914;28;20047;-79
2021/10/28 06:02:03;;;;;;;20.73;12.20;;;7.90;99.90;;;;;;5048852;28;20021;-79
2021/10/28 06:04:29;;;;;;;23.63;13.02;;;7.90;99.90;;;;;;5047214;28;20037;-79
2021/10/28 06:06:54;;;;;;;23.15;12.70;;;7.90;99.90;;;;;;5049073;28;20481;-79
2021/10/28 06:09:20;;;;;;;20.25;12.13;;;7.90;99.90;;;;;;5048284;28;20477;-79
2021/10/28 06:11:47;;;;;;;23.63;14.02;;;7.90;99.90;;;;;;5048749;28;20078;-81
2021/10/28 06:14:17;;;;;;;22.10;12.73;;;7.90;99.90;;;;;;5048776;28;20032;-80
2021/10/28 06:16:43;;;;;;;23.70;14.55;;;7.90;99.90;;;;;;5049047;28;20025;-80
2021/10/28 06:19:08;;;;;;;26.13;14.40;;;7.90;99.90;;;;;;5047785;28;20468;-81
2021/10/28 06:21:34;;;;;;;27.30;14.63;;;7.90;99.90;;;;;;5047310;28;20033;-79
2021/10/28 06:23:59;;;;;;;29.58;14.45;;;7.90;99.90;;;;;;5048904;28;20025;-79
2021/10/28 06:26:26;;;;;;;28.55;14.30;;;8.00;99.90;;;;;;5048689;28;20478;-79
2021/10/28 06:28:53;;;;;;;21.73;14.48;;;8.00;99.90;;;;;;5051495;28;20021;-79
2021/10/28 06:31:19;;;;;;;26.08;14.85;;;8.00;99.90;;;;;;5051839;28;20028;-79
2021/10/28 06:33:48;;;;;;;26.88;12.80;;;8.00;99.90;;;;;;5052288;28;20102;-79
2021/10/28 06:36:19;;;;;;;22.98;13.57;;;8.00;99.90;;;;;;5052077;28;20708;-79
2021/10/28 06:38:45;;;;;;;28.08;15.23;;;8.00;99.90;;;;;;5051093;28;20029;-79
2021/10/28 06:41:11;;;;;;;25.70;14.15;;;8.00;99.90;;;;;;5051566;28;20087;-79
2021/10/28 06:43:36;;;;;;;27.55;14.50;;;8.10;99.90;;;;;;5051957;28;20048;-79
2021/10/28 06:46:02;;;;;;;28.70;15.07;;;8.10;99.90;;;;;;5051944;28;20056;-80
2021/10/28 06:48:28;;;;;;;34.55;14.45;;;8.00;99.90;;;;;;5051428;28;20037;-79
2021/10/28 06:50:56;;;;;;;25.20;14.85;;;8.10;99.90;;;;;;5051728;28;20029;-79
2021/10/28 06:53:26;;;;;;;24.10;13.18;;;8.10;99.90;;;;;;5052199;28;20405;-79
2021/10/28 06:56:01;;;;;;;24.42;13.80;;;8.10;99.90;;;;;;5037869;28;20442;-80
2021/10/28 07:03:55;;;;;;;25.25;14.30;;;8.20;99.90;;;;;;5043204;28;20040;-81
2021/10/28 07:06:22;;;;;;;28.60;15.27;;;8.20;99.90;;;;;;5051761;28;20373;-81
2021/10/28 07:08:53;;;;;;;25.67;14.60;;;8.20;99.90;;;;;;5049066;28;20424;-78
2021/10/28 07:11:25;;;;;;;23.60;14.00;;;8.30;99.90;;;;;;5051225;28;20029;-80
2021/10/28 07:13:52;;;;;;;24.92;13.60;;;8.30;99.90;;;;;;5051153;28;20381;-80
2021/10/28 07:16:26;;;;;;;25.23;15.70;;;8.30;99.90;;;;;;5051584;28;20178;-80
2021/10/28 07:19:01;;;;;;;33.05;15.70;;;8.30;99.90;;;;;;5050881;28;20564;-80
2021/10/28 08:05:04;;;;;;;19.90;12.45;;;9.30;99.90;;;;;;5050858;28;20071;-80
2021/10/28 08:16:00;;;;;;;18.20;11.77;;;9.60;99.90;;;;;;5050370;28;20044;-80
2021/10/28 08:18:46;;;;;;;16.98;11.95;;;9.70;99.90;;;;;;5049744;28;20066;-80
2021/10/28 08:21:36;;;;;;;16.10;11.40;;;9.80;99.90;;;;;;5050077;28;20561;-80
2021/10/28 08:24:08;;;;;;;18.35;12.10;;;9.90;99.90;;;;;;5049916;28;20032;-79
2021/10/28 08:29:22;;;;;;;21.88;11.52;;;10.10;99.90;;;;;;5050047;28;20059;-81
2021/10/28 08:31:55;;;;;;;18.90;11.85;;;10.20;99.90;;;;;;5049107;28;20036;-81
2021/10/28 08:34:26;;;;;;;15.38;10.55;;;10.30;99.90;;;;;;5050564;28;20029;-80
2021/10/28 08:36:54;;;;;;;17.17;11.48;;;10.40;99.90;;;;;;5049818;28;20115;-81
2021/10/28 08:39:21;;;;;;;17.33;11.27;;;10.50;99.90;;;;;;5049620;28;20050;-80
2021/10/28 08:41:47;;;;;;;15.45;10.30;;;10.60;99.90;;;;;;5048849;28;20017;-80
2021/10/28 08:44:15;;;;;;;16.05;10.52;;;10.80;99.90;;;;;;5048873;28;20032;-80
2021/10/28 08:46:44;;;;;;;15.90;10.90;;;10.80;99.90;;;;;;5049890;28;20025;-81
2021/10/28 08:49:18;;;;;;;15.35;11.05;;;11.00;99.80;;;;;;5048936;28;20025;-81
2021/10/28 08:57:26;;;;;;;12.85;9.40;;;11.40;98.80;;;;;;5029791;28;20497;-80
2021/10/28 09:00:22;;;;;;;13.75;9.20;;;11.60;98.20;;;;;;5028260;28;20033;-80
2021/10/28 09:26:53;;;;;;;14.07;7.07;;;12.90;96.40;;;;;;5046328;28;20029;-81
2021/10/28 09:29:37;;;;;;;8.43;6.55;;;13.00;96.10;;;;;;5046413;28;20025;-81
2021/10/28 09:32:28;;;;;;;10.48;6.75;;;13.10;95.80;;;;;;5047737;28;20041;-80
2021/10/28 09:44:02;;;;;;;8.55;6.22;;;13.70;94.20;;;;;;5049422;28;20059;-79
2021/10/28 09:46:36;;;;;;;;;;;13.80;94.00;;;;;;5049799;28;20044;-80
2021/10/28 09:52:17;;;;;;;7.22;5.43;;;14.10;93.70;;;;;;5048868;28;20108;-81
2021/10/28 10:00:03;;;;;;;;;;;14.40;93.40;;;;;;5049159;28;20064;-81
2021/10/28 10:02:36;;;;;;;7.18;5.18;;;14.60;92.70;;;;;;5050286;28;19954;-80
2021/10/28 10:05:20;;;;;;;9.15;5.63;;;14.70;93.10;;;;;;5052996;28;20116;-80
2021/10/28 10:07:56;;;;;;;10.82;5.63;;;14.80;92.60;;;;;;5051765;28;20025;-80
2021/10/28 10:10:23;;;;;;;8.60;6.70;;;14.90;92.30;;;;;;5053087;28;20070;-80
2021/10/28 10:12:49;;;;;;;7.95;5.30;;;15.00;92.20;;;;;;5052172;28;20527;-80
2021/10/28 10:15:15;;;;;;;11.68;5.65;;;15.20;92.20;;;;;;5052897;28;20036;-80
2021/10/28 10:17:48;;;;;;;6.85;5.80;;;15.30;91.90;;;;;;5051852;28;20044;-79
2021/10/28 10:20:15;;;;;;;10.13;6.25;;;15.40;91.90;;;;;;5052941;28;20025;-80
2021/10/28 11:33:10;;;;;;;5.75;4.45;;;17.60;87.10;;;;;;5010996;28;20052;-80
2021/10/28 12:15:04;;;;;;;4.70;3.78;;;18.10;85.90;;;;;;5010862;28;20532;-81
2021/10/28 12:23:37;;;;;;;6.50;4.05;;;18.40;85.00;;;;;;5010321;28;20258;-81
2021/10/28 12:46:46;;;;;;;4.78;3.00;;;19.20;83.80;;;;;;5010336;28;20041;-80
2021/10/28 12:55:35;;;;;;;5.45;3.42;;;19.50;82.20;;;;;;5010000;28;20032;-81
2021/10/28 13:06:24;;;;;;;7.20;2.95;;;19.90;80.60;;;;;;5046727;28;20106;-82
2021/10/28 13:50:00;;;;;;;3.28;2.30;;;19.80;78.00;;;;;;5052870;28;20039;-80
2021/10/28 14:00:47;;;;;;;2.47;1.70;;;19.70;75.20;;;;;;5053309;28;20032;-80
2021/10/28 14:25:37;;;;;;;1.98;1.75;;;19.20;74.80;;;;;;5052600;28;20553;-79
2021/10/28 14:33:35;;;;;;;2.95;1.50;;;18.90;75.80;;;;;;5051921;28;20649;-79
2021/10/28 14:38:56;;;;;;;4.60;2.38;;;18.70;75.90;;;;;;5051589;28;20056;-80
2021/10/28 15:03:14;;;;;;;5.70;2.78;;;17.70;80.70;;;;;;5031465;28;20048;-80
2021/10/28 15:27:46;;;;;;;6.13;3.10;;;17.50;82.70;;;;;;5031572;28;20040;-79
2021/10/28 15:36:15;;;;;;;6.97;4.80;;;16.50;89.60;;;;;;5030741;28;20102;-79
2021/10/28 15:55:28;;;;;;;9.40;7.38;;;15.70;92.00;;;;;;5030337;28;20068;-79
2021/10/28 16:21:55;;;;;;;16.15;9.57;;;14.50;94.50;;;;;;5030408;28;20095;-80
2021/10/28 16:24:27;;;;;;;12.15;8.75;;;14.40;94.80;;;;;;5030349;28;20029;-79
2021/10/28 16:26:54;;;;;;;13.13;8.67;;;14.20;95.10;;;;;;5030109;28;20513;-80
2021/10/28 16:29:20;;;;;;;14.88;9.18;;;14.10;95.20;;;;;;5029447;28;20032;-80
2021/10/28 16:31:46;;;;;;;12.20;8.63;;;14.00;95.40;;;;;;5029430;28;20030;-80
2021/10/28 16:34:13;;;;;;;10.65;7.40;;;14.00;95.40;;;;;;5030028;28;20814;-79
2021/10/28 16:36:38;;;;;;;11.27;7.65;;;13.90;95.10;;;;;;5030174;28;20030;-80
2021/10/28 16:39:09;;;;;;;12.20;7.93;;;13.80;95.00;;;;;;5029361;28;20112;-80
2021/10/28 16:41:36;;;;;;;14.50;6.95;;;13.70;95.00;;;;;;5029439;28;20064;-80
2021/10/28 16:44:03;;;;;;;10.77;7.10;;;13.70;95.20;;;;;;5029855;28;20021;-80
2021/10/28 16:46:29;;;;;;;15.85;7.05;;;13.60;94.90;;;;;;5029816;28;20028;-80
2021/10/28 16:48:55;;;;;;;16.23;7.80;;;13.50;94.90;;;;;;5029494;28;20428;-80
2021/10/28 16:51:21;;;;;;;7.90;6.85;;;13.50;94.80;;;;;;5029591;28;20029;-80
2021/10/28 16:53:46;;;;;;;8.30;6.15;;;13.50;94.70;;;;;;5029787;28;20033;-81
2021/10/28 16:56:14;;;;;;;13.52;6.20;;;13.40;94.30;;;;;;5029543;28;20167;-80
2021/10/28 16:58:41;;;;;;;8.40;5.15;;;13.40;94.10;;;;;;5028819;28;20397;-80
2021/10/28 17:01:11;;;;;;;7.43;4.78;;;13.30;93.60;;;;;;5029389;28;20144;-80
2021/10/28 17:03:36;;;;;;;7.95;5.10;;;13.30;93.30;;;;;;5029739;28;20026;-79
2021/10/28 17:06:02;;;;;;;7.63;4.43;;;13.30;92.90;;;;;;5028641;28;20066;-80
2021/10/28 17:08:29;;;;;;;7.78;4.65;;;13.20;93.00;;;;;;5032037;28;20072;-80
2021/10/28 17:10:55;;;;;;;8.05;4.78;;;13.20;92.90;;;;;;5031375;28;20378;-80
2021/10/28 17:13:21;;;;;;;7.20;4.85;;;13.20;92.80;;;;;;5031350;28;20026;-81
2021/10/28 17:15:47;;;;;;;7.35;5.05;;;13.10;92.60;;;;;;5029683;28;20025;-80
2021/10/28 17:18:12;;;;;;;6.57;5.00;;;13.10;92.50;;;;;;5027489;28;20394;-80
2021/10/28 17:20:38;;;;;;;5.93;4.80;;;13.10;92.30;;;;;;5029248;28;20095;-80
2021/10/28 17:23:05;;;;;;;6.93;5.10;;;13.10;92.20;;;;;;5029342;28;20025;-81
2021/10/28 17:25:37;;;;;;;9.90;5.45;;;13.00;92.20;;;;;;5028339;28;20021;-80
2021/10/28 17:28:02;;;;;;;6.80;5.43;;;13.00;92.50;;;;;;5028742;28;20069;-80
2021/10/28 17:30:28;;;;;;;7.25;5.18;;;13.00;92.30;;;;;;5030006;28;20080;-80
2021/10/28 17:32:54;;;;;;;7.75;5.40;;;13.00;92.30;;;;;;5028077;28;20033;-80
2021/10/28 17:35:19;;;;;;;6.45;4.43;;;12.90;92.30;;;;;;5029879;28;20049;-80
2021/10/28 17:37:44;;;;;;;7.10;5.35;;;12.90;92.40;;;;;;5028571;28;20112;-81
2021/10/28 17:40:10;;;;;;;8.50;4.97;;;12.80;92.40;;;;;;5030128;28;20119;-80
2021/10/28 17:42:36;;;;;;;6.65;5.10;;;12.80;92.50;;;;;;5028386;28;20144;-81
2021/10/28 17:45:04;;;;;;;10.13;5.43;;;12.80;92.60;;;;;;5029483;28;20053;-80
2021/10/28 17:47:29;;;;;;;8.18;5.60;;;12.70;92.60;;;;;;5029053;28;20041;-80
2021/10/28 17:49:59;;;;;;;7.72;5.38;;;12.60;92.70;;;;;;5029365;28;20025;-80
2021/10/28 17:52:25;;;;;;;8.35;4.88;;;12.60;92.80;;;;;;5029315;28;20030;-79
2021/10/28 17:54:50;;;;;;;7.72;4.70;;;12.60;93.00;;;;;;5031697;28;20021;-79
2021/10/28 17:57:16;;;;;;;9.38;5.07;;;12.50;93.10;;;;;;5029405;28;20029;-79
2021/10/28 17:59:42;;;;;;;6.25;4.57;;;12.40;93.20;;;;;;5028571;28;20031;-81
2021/10/28 18:02:10;;;;;;;10.38;5.70;;;12.30;93.30;;;;;;5028581;28;20029;-80
2021/10/28 18:04:35;;;;;;;8.70;6.28;;;12.30;93.30;;;;;;5044445;28;20112;-80
2021/10/28 18:07:02;;;;;;;9.93;6.70;;;12.30;93.40;;;;;;5028810;28;20109;-79
2021/10/28 18:09:27;;;;;;;7.65;5.18;;;12.20;93.60;;;;;;5028972;28;20032;-80
2021/10/28 18:11:55;;;;;;;9.02;6.20;;;12.10;93.70;;;;;;5027188;28;20487;-79
2021/10/28 18:14:23;;;;;;;10.98;6.65;;;12.00;93.80;;;;;;5044603;28;20036;-79
2021/10/28 18:16:49;;;;;;;8.82;6.50;;;11.90;93.90;;;;;;5044274;28;20096;-79
2021/10/28 18:19:15;;;;;;;9.80;6.40;;;11.90;94.00;;;;;;5028458;28;20041;-79
2021/10/28 18:21:45;;;;;;;8.75;6.43;;;11.80;94.10;;;;;;5028620;28;20045;-79
2021/10/28 18:24:14;;;;;;;11.05;7.22;;;11.80;94.30;;;;;;5031577;28;20036;-79
2021/10/28 18:26:40;;;;;;;11.52;7.22;;;11.70;94.40;;;;;;5032609;28;20030;-79
2021/10/28 18:29:06;;;;;;;9.57;6.47;;;11.60;94.50;;;;;;5031541;28;20048;-79
2021/10/28 18:31:32;;;;;;;12.63;7.88;;;11.50;94.60;;;;;;5032372;28;20478;-80
2021/10/28 18:33:59;;;;;;;9.95;7.38;;;11.50;94.70;;;;;;5032206;28;20041;-78
2021/10/28 18:36:26;;;;;;;9.25;6.78;;;11.50;94.90;;;;;;5032934;28;20021;-79
2021/10/28 18:38:52;;;;;;;12.48;6.35;;;11.40;95.00;;;;;;5031664;28;20112;-79
2021/10/28 18:41:19;;;;;;;10.65;6.78;;;11.30;95.20;;;;;;5031731;28;20329;-80
2021/10/28 18:43:46;;;;;;;10.18;6.78;;;11.30;95.30;;;;;;5047643;28;20043;-80
2021/10/28 18:46:21;;;;;;;10.40;6.38;;;11.30;95.40;;;;;;5032036;28;20056;-79
2021/10/28 18:48:51;;;;;;;10.85;6.45;;;11.20;95.50;;;;;;5031808;28;20040;-79
2021/10/28 18:51:18;;;;;;;11.73;7.25;;;11.20;95.40;;;;;;5030341;28;20403;-79
2021/10/28 18:53:45;;;;;;;8.95;6.72;;;11.20;95.40;;;;;;5032187;28;20025;-79
2021/10/28 18:56:11;;;;;;;8.80;6.25;;;11.20;95.50;;;;;;5031585;28;20064;-79
2021/10/28 18:58:37;;;;;;;9.27;6.05;;;11.20;95.50;;;;;;5031159;28;20046;-79
2021/10/28 19:01:03;;;;;;;10.18;7.13;;;11.20;95.50;;;;;;5031377;28;20041;-79
2021/10/28 19:03:29;;;;;;;9.88;7.13;;;11.20;95.60;;;;;;5031573;28;20092;-79
2021/10/28 19:05:57;;;;;;;11.13;6.25;;;11.20;95.70;;;;;;5032076;28;20033;-79
2021/10/28 19:08:24;;;;;;;10.80;6.32;;;11.10;95.80;;;;;;5031145;28;20059;-79
2021/10/28 19:10:50;;;;;;;9.50;5.80;;;11.20;95.80;;;;;;5031664;28;20037;-79
2021/10/28 19:13:17;;;;;;;10.38;6.45;;;11.10;95.90;;;;;;5031672;28;20458;-79
2021/10/28 19:15:43;;;;;;;6.55;5.78;;;11.10;96.00;;;;;;5032266;28;20095;-79
2021/10/28 19:18:08;;;;;;;8.50;6.38;;;11.10;96.10;;;;;;5030526;28;20474;-80
2021/10/28 19:20:36;;;;;;;8.88;6.68;;;11.10;96.10;;;;;;5031620;28;20056;-78
2021/10/28 19:23:01;;;;;;;9.73;6.00;;;11.10;95.90;;;;;;5031329;28;20154;-78
2021/10/28 19:25:27;;;;;;;11.25;6.30;;;11.10;95.60;;;;;;5031595;28;20185;-80
2021/10/28 19:27:55;;;;;;;10.02;6.03;;;11.20;95.30;;;;;;5030602;28;20033;-80
2021/10/28 19:32:54;;;;;;;8.43;5.25;;;11.50;94.60;;;;;;5030950;28;20486;-80
2021/10/28 19:35:22;;;;;;;7.35;5.47;;;11.60;94.40;;;;;;5030991;28;20355;-80
2021/10/28 19:37:55;;;;;;;8.15;5.60;;;11.70;94.20;;;;;;5030441;28;20502;-80
2021/10/28 19:46:22;;;;;;;8.63;6.22;;;12.00;93.80;;;;;;5031400;28;20091;-81
2021/10/28 19:48:41;;;;;;;9.05;6.43;;;12.00;93.80;;;;;;5029199;28;20479;-80
2021/10/28 19:51:09;;;;;;;10.52;6.65;;;12.00;93.70;;;;;;5029501;28;20022;-80
2021/10/28 19:53:34;;;;;;;9.15;6.63;;;12.00;93.80;;;;;;5029603;28;20068;-81
2021/10/28 19:58:59;;;;;;;10.38;6.38;;;12.00;93.70;;;;;;5009359;28;20483;-81
2021/10/28 20:06:42;;;;;;;10.50;6.03;;;11.90;93.80;;;;;;5030490;28;20474;-81
2021/10/28 20:14:51;;;;;;;9.18;6.00;;;11.80;93.90;;;;;;5031047;28;20076;-79
2021/10/28 20:22:29;;;;;;;9.70;6.35;;;11.70;94.00;;;;;;5029963;28;20072;-80
2021/10/28 20:24:54;;;;;;;10.10;6.90;;;11.70;94.00;;;;;;5030557;28;20080;-79
2021/10/28 20:27:20;;;;;;;10.00;7.10;;;11.60;94.10;;;;;;5028722;28;20667;-79
2021/10/28 20:29:46;;;;;;;9.32;6.95;;;11.60;94.10;;;;;;5029416;28;20509;-79
2021/10/28 20:32:12;;;;;;;9.57;7.63;;;11.50;94.20;;;;;;5028346;28;20064;-79
2021/10/28 20:35:03;;;;;;;11.25;7.93;;;11.50;94.20;;;;;;5029769;28;20175;-79
2021/10/28 20:37:29;;;;;;;10.85;8.02;;;11.50;94.30;;;;;;5028615;28;20061;-79
2021/10/28 20:39:55;;;;;;;11.50;6.65;;;11.50;94.30;;;;;;5029553;28;20041;-79
2021/10/28 20:42:21;;;;;;;9.02;6.55;;;11.50;94.30;;;;;;5030165;28;20045;-79
2021/10/28 20:44:48;;;;;;;11.35;7.45;;;11.40;94.50;;;;;;5029366;28;20052;-79
2021/10/28 20:47:13;;;;;;;10.50;6.95;;;11.40;94.40;;;;;;5027942;28;20033;-79
2021/10/28 20:49:39;;;;;;;10.40;8.05;;;11.40;94.50;;;;;;5028952;28;20026;-79
2021/10/28 20:52:05;;;;;;;13.45;9.02;;;11.40;94.60;;;;;;5029530;28;20025;-81
2021/10/28 20:54:32;;;;;;;11.25;7.68;;;11.30;94.80;;;;;;5029720;28;20040;-81
2021/10/28 20:57:01;;;;;;;11.48;7.82;;;11.30;94.90;;;;;;5029562;28;20112;-81
2021/10/28 20:59:27;;;;;;;12.68;8.20;;;11.30;95.10;;;;;;5029271;28;20432;-81
2021/10/28 21:01:53;;;;;;;12.40;8.45;;;11.30;95.30;;;;;;5028865;28;20033;-81
2021/10/28 21:04:18;;;;;;;14.15;7.88;;;11.20;95.50;;;;;;5029742;28;20080;-80
2021/10/28 21:06:44;;;;;;;12.52;8.82;;;11.20;95.60;;;;;;5029482;28;20490;-80
2021/10/28 21:09:09;;;;;;;12.57;7.97;;;11.20;95.70;;;;;;5027472;28;20029;-80
2021/10/28 21:11:37;;;;;;;11.50;7.40;;;11.20;95.60;;;;;;5029518;28;20092;-79
2021/10/28 21:14:04;;;;;;;13.57;9.50;;;11.20;95.60;;;;;;5029591;28;20029;-79